createdAt,value
2019-05-01T00:00:56.540Z,974.67
2019-05-01T00:01:56.485Z,974.63
2019-05-01T00:02:56.537Z,974.62
2019-05-01T00:03:56.457Z,974.66
2019-05-01T00:04:56.447Z,974.67
2019-05-01T00:05:56.435Z,974.61
2019-05-01T00:06:56.431Z,974.58
2019-05-01T00:07:56.414Z,974.59
2019-05-01T00:08:56.403Z,974.68
2019-05-01T00:09:56.392Z,974.62
2019-05-01T00:10:56.385Z,974.65
2019-05-01T00:11:56.387Z,974.55
2019-05-01T00:12:56.360Z,974.61
2019-05-01T00:13:56.351Z,974.60
2019-05-01T00:14:56.346Z,974.56
2019-05-01T00:15:56.333Z,974.58
2019-05-01T00:16:56.351Z,974.56
2019-05-01T00:17:56.315Z,974.58
2019-05-01T00:18:56.298Z,974.53
2019-05-01T00:19:56.298Z,974.58
2019-05-01T00:20:56.276Z,974.56
2019-05-01T00:21:56.285Z,974.58
2019-05-01T00:22:56.254Z,974.58
2019-05-01T00:23:56.245Z,974.54
2019-05-01T00:24:56.238Z,974.54
2019-05-01T00:25:56.228Z,974.55
2019-05-01T00:26:56.236Z,974.52
2019-05-01T00:27:56.204Z,974.56
2019-05-01T00:28:56.189Z,974.56
2019-05-01T00:29:56.183Z,974.52
2019-05-01T00:30:56.173Z,974.49
2019-05-01T00:31:56.316Z,974.48
2019-05-01T00:32:56.143Z,974.49
2019-05-01T00:33:56.137Z,974.49
2019-05-01T00:34:56.131Z,974.47
2019-05-01T00:35:56.133Z,974.46
2019-05-01T00:36:56.115Z,974.49
2019-05-01T00:37:56.091Z,974.46
2019-05-01T00:38:56.090Z,974.48
2019-05-01T00:39:56.076Z,974.48
2019-05-01T00:40:56.070Z,974.52
2019-05-01T00:41:56.064Z,974.50
2019-05-01T00:42:56.047Z,974.47
2019-05-01T00:43:56.027Z,974.54
2019-05-01T00:44:56.020Z,974.45
2019-05-01T00:45:56.022Z,974.45
2019-05-01T00:46:56.043Z,974.42
2019-05-01T00:47:55.986Z,974.40
2019-05-01T00:48:55.986Z,974.38
2019-05-01T00:49:55.966Z,974.41
2019-05-01T00:50:55.951Z,974.39
2019-05-01T00:51:55.941Z,974.39
2019-05-01T00:52:55.950Z,974.39
2019-05-01T00:53:55.951Z,974.39
2019-05-01T00:54:55.935Z,974.40
2019-05-01T00:55:55.906Z,974.43
2019-05-01T00:56:55.891Z,974.30
2019-05-01T00:57:55.888Z,974.44
2019-05-01T00:58:55.872Z,974.42
2019-05-01T00:59:55.865Z,974.38
2019-05-01T01:00:55.864Z,974.32
2019-05-01T01:01:55.831Z,974.36
2019-05-01T01:02:55.838Z,974.38
2019-05-01T01:03:55.811Z,974.41
2019-05-01T01:04:55.799Z,974.34
2019-05-01T01:05:55.807Z,974.34
2019-05-01T01:06:55.782Z,974.34
2019-05-01T01:07:56.227Z,974.31
2019-05-01T01:08:55.758Z,974.33
2019-05-01T01:09:55.751Z,974.36
2019-05-01T01:10:55.736Z,974.34
2019-05-01T01:11:55.755Z,974.31
2019-05-01T01:12:55.737Z,974.31
2019-05-01T01:13:55.707Z,974.28
2019-05-01T01:14:55.690Z,974.29
2019-05-01T01:15:55.686Z,974.31
2019-05-01T01:16:55.671Z,974.30
2019-05-01T01:17:55.680Z,974.28
2019-05-01T01:18:55.649Z,974.32
2019-05-01T01:19:55.641Z,974.29
2019-05-01T01:20:55.628Z,974.28
2019-05-01T01:21:55.619Z,974.26
2019-05-01T01:22:55.619Z,974.26
2019-05-01T01:23:55.610Z,974.28
2019-05-01T01:24:55.584Z,974.27
2019-05-01T01:25:55.574Z,974.35
2019-05-01T01:26:55.563Z,974.24
2019-05-01T01:27:55.574Z,974.30
2019-05-01T01:28:55.556Z,974.23
2019-05-01T01:29:55.601Z,974.21
2019-05-01T01:30:56.803Z,974.27
2019-05-01T01:31:55.514Z,974.28
2019-05-01T01:32:55.504Z,974.24
2019-05-01T01:33:55.496Z,974.21
2019-05-01T01:34:55.485Z,974.24
2019-05-01T01:35:55.465Z,974.22
2019-05-01T01:36:55.523Z,974.18
2019-05-01T01:37:55.472Z,974.24
2019-05-01T01:38:55.437Z,974.17
2019-05-01T01:39:55.423Z,974.23
2019-05-01T01:40:55.418Z,974.24
2019-05-01T01:41:55.401Z,974.26
2019-05-01T01:42:55.408Z,974.27
2019-05-01T01:43:55.388Z,974.18
2019-05-01T01:44:55.371Z,974.25
2019-05-01T01:45:55.364Z,974.16
2019-05-01T01:46:55.355Z,974.20
2019-05-01T01:47:55.336Z,974.17
2019-05-01T01:48:55.337Z,974.16
2019-05-01T01:49:55.315Z,974.16
2019-05-01T01:50:55.308Z,974.21
2019-05-01T01:51:55.314Z,974.20
2019-05-01T01:52:55.296Z,974.16
2019-05-01T01:53:55.284Z,974.20
2019-05-01T01:54:55.261Z,974.12
2019-05-01T01:55:55.251Z,974.19
2019-05-01T01:56:55.248Z,974.16
2019-05-01T01:57:55.268Z,974.13
2019-05-01T01:58:55.245Z,974.10
2019-05-01T01:59:55.206Z,974.15
2019-05-01T02:00:55.198Z,974.13
2019-05-01T02:01:55.206Z,974.11
2019-05-01T02:02:55.178Z,974.05
2019-05-01T02:03:55.181Z,974.06
2019-05-01T02:04:55.154Z,974.10
2019-05-01T02:05:55.227Z,974.10
2019-05-01T02:06:55.132Z,974.04
2019-05-01T02:07:55.130Z,974.13
2019-05-01T02:08:56.738Z,974.07
2019-05-01T02:09:55.115Z,974.08
2019-05-01T02:10:55.088Z,974.03
2019-05-01T02:11:55.078Z,974.05
2019-05-01T02:12:55.229Z,974.03
2019-05-01T02:13:55.074Z,974.02
2019-05-01T02:14:55.051Z,974.01
2019-05-01T02:15:55.052Z,974.03
2019-05-01T02:16:55.025Z,974.02
2019-05-01T02:17:55.015Z,973.99
2019-05-01T02:18:55.014Z,974.01
2019-05-01T02:19:55.025Z,973.96
2019-05-01T02:20:54.992Z,974.02
2019-05-01T02:21:54.970Z,973.99
2019-05-01T02:22:54.962Z,974.01
2019-05-01T02:23:54.961Z,973.98
2019-05-01T02:24:54.938Z,973.98
2019-05-01T02:25:54.937Z,973.97
2019-05-01T02:26:54.947Z,973.96
2019-05-01T02:27:54.921Z,973.92
2019-05-01T02:28:54.936Z,973.98
2019-05-01T02:29:54.889Z,973.97
2019-05-01T02:30:54.876Z,973.93
2019-05-01T02:31:54.864Z,974.01
2019-05-01T02:32:54.862Z,973.99
2019-05-01T02:33:54.849Z,973.98
2019-05-01T02:34:54.853Z,973.92
2019-05-01T02:35:54.822Z,973.96
2019-05-01T02:36:54.810Z,973.94
2019-05-01T02:37:54.809Z,973.93
2019-05-01T02:38:54.793Z,973.90
2019-05-01T02:39:54.779Z,973.96
2019-05-01T02:40:54.778Z,973.95
2019-05-01T02:41:54.764Z,973.99
2019-05-01T02:42:54.751Z,974.01
2019-05-01T02:43:54.740Z,973.93
2019-05-01T02:44:54.772Z,973.95
2019-05-01T02:45:54.713Z,973.91
2019-05-01T02:46:54.712Z,973.90
2019-05-01T02:47:54.696Z,973.89
2019-05-01T02:48:54.708Z,973.98
2019-05-01T02:49:54.685Z,974.02
2019-05-01T02:50:54.660Z,973.94
2019-05-01T02:51:54.648Z,973.92
2019-05-01T02:52:54.642Z,973.99
2019-05-01T02:53:54.633Z,974.01
2019-05-01T02:54:54.628Z,973.94
2019-05-01T02:55:54.671Z,973.95
2019-05-01T02:56:54.600Z,973.95
2019-05-01T02:57:54.583Z,973.92
2019-05-01T02:58:54.573Z,973.87
2019-05-01T02:59:54.574Z,973.89
2019-05-01T03:00:54.553Z,973.84
2019-05-01T03:01:54.567Z,973.98
2019-05-01T03:02:54.537Z,973.95
2019-05-01T03:03:54.519Z,973.91
2019-05-01T03:04:54.527Z,973.85
2019-05-01T03:05:54.505Z,973.95
2019-05-01T03:06:54.489Z,973.92
2019-05-01T03:07:54.493Z,973.93
2019-05-01T03:08:54.474Z,973.91
2019-05-01T03:09:54.466Z,973.89
2019-05-01T03:10:54.446Z,973.90
2019-05-01T03:11:54.444Z,973.87
2019-05-01T03:12:54.426Z,973.85
2019-05-01T03:13:54.428Z,973.83
2019-05-01T03:14:54.410Z,973.89
2019-05-01T03:15:54.391Z,973.81
2019-05-01T03:16:54.380Z,973.75
2019-05-01T03:17:54.384Z,973.76
2019-05-01T03:18:54.377Z,973.81
2019-05-01T03:19:54.373Z,973.76
2019-05-01T03:20:54.337Z,973.85
2019-05-01T03:21:55.208Z,973.83
2019-05-01T03:22:54.325Z,973.83
2019-05-01T03:23:54.304Z,973.83
2019-05-01T03:24:54.305Z,973.87
2019-05-01T03:25:54.297Z,973.79
2019-05-01T03:26:54.278Z,973.81
2019-05-01T03:27:54.262Z,973.82
2019-05-01T03:28:54.253Z,973.80
2019-05-01T03:29:54.238Z,973.87
2019-05-01T03:30:54.237Z,973.89
2019-05-01T03:32:15.451Z,973.90
2019-05-01T03:32:55.213Z,973.80
2019-05-01T03:33:54.196Z,973.91
2019-05-01T03:34:54.196Z,973.92
2019-05-01T03:35:54.178Z,973.86
2019-05-01T03:36:54.185Z,973.91
2019-05-01T03:37:54.157Z,973.85
2019-05-01T03:38:54.143Z,973.87
2019-05-01T03:39:54.146Z,973.89
2019-05-01T03:40:54.162Z,973.89
2019-05-01T03:41:54.134Z,973.91
2019-05-01T03:42:54.097Z,973.82
2019-05-01T03:43:54.087Z,973.86
2019-05-01T03:44:54.076Z,973.85
2019-05-01T03:45:54.087Z,973.85
2019-05-01T03:46:54.135Z,973.86
2019-05-01T03:47:54.063Z,973.85
2019-05-01T03:48:54.033Z,973.89
2019-05-01T03:49:54.030Z,973.85
2019-05-01T03:50:54.014Z,973.86
2019-05-01T03:51:54.001Z,973.76
2019-05-01T03:52:53.991Z,973.83
2019-05-01T03:53:53.992Z,973.83
2019-05-01T03:54:53.971Z,973.84
2019-05-01T03:55:53.963Z,973.82
2019-05-01T03:56:53.946Z,973.84
2019-05-01T03:57:53.940Z,973.86
2019-05-01T03:58:53.928Z,973.88
2019-05-01T03:59:53.937Z,973.83
2019-05-01T04:00:53.979Z,973.85
2019-05-01T04:01:53.895Z,973.88
2019-05-01T04:02:53.886Z,973.87
2019-05-01T04:03:53.875Z,973.85
2019-05-01T04:04:53.871Z,973.91
2019-05-01T04:05:53.867Z,973.86
2019-05-01T04:06:53.841Z,973.83
2019-05-01T04:07:53.856Z,973.85
2019-05-01T04:08:53.818Z,973.81
2019-05-01T04:09:53.816Z,973.91
2019-05-01T04:10:53.809Z,973.87
2019-05-01T04:11:53.786Z,973.92
2019-05-01T04:12:53.774Z,973.91
2019-05-01T04:13:53.765Z,973.92
2019-05-01T04:14:53.794Z,973.87
2019-05-01T04:15:53.780Z,973.91
2019-05-01T04:16:53.732Z,973.97
2019-05-01T04:17:53.734Z,973.85
2019-05-01T04:18:53.711Z,973.86
2019-05-01T04:19:53.702Z,973.85
2019-05-01T04:20:53.695Z,973.90
2019-05-01T04:21:53.682Z,973.86
2019-05-01T04:22:53.681Z,973.84
2019-05-01T04:23:53.657Z,973.85
2019-05-01T04:24:53.647Z,973.79
2019-05-01T04:25:53.638Z,973.82
2019-05-01T04:26:53.630Z,973.81
2019-05-01T04:27:53.617Z,973.81
2019-05-01T04:28:53.614Z,973.92
2019-05-01T04:29:53.599Z,973.88
2019-05-01T04:30:53.588Z,973.91
2019-05-01T04:31:53.578Z,973.87
2019-05-01T04:32:53.585Z,973.92
2019-05-01T04:33:53.546Z,973.87
2019-05-01T04:34:53.538Z,973.96
2019-05-01T04:35:53.528Z,973.93
2019-05-01T04:36:53.538Z,973.92
2019-05-01T04:37:53.513Z,973.91
2019-05-01T04:38:53.496Z,973.92
2019-05-01T04:39:53.488Z,973.99
2019-05-01T04:40:53.471Z,974.00
2019-05-01T04:41:53.463Z,973.95
2019-05-01T04:42:53.454Z,973.93
2019-05-01T04:43:53.443Z,973.95
2019-05-01T04:44:53.430Z,973.94
2019-05-01T04:45:53.421Z,973.98
2019-05-01T04:46:53.740Z,973.97
2019-05-01T04:47:53.414Z,974.00
2019-05-01T04:48:53.386Z,974.03
2019-05-01T04:49:53.419Z,974.00
2019-05-01T04:50:53.566Z,973.99
2019-05-01T04:51:53.371Z,973.98
2019-05-01T04:52:53.343Z,974.05
2019-05-01T04:53:53.334Z,974.07
2019-05-01T04:54:53.321Z,974.00
2019-05-01T04:55:53.315Z,973.99
2019-05-01T04:56:54.199Z,974.08
2019-05-01T04:57:53.361Z,974.06
2019-05-01T04:58:53.280Z,974.10
2019-05-01T04:59:53.266Z,974.03
2019-05-01T05:00:53.258Z,974.05
2019-05-01T05:01:56.527Z,974.05
2019-05-01T05:03:04.120Z,974.10
2019-05-01T05:03:54.231Z,974.09
2019-05-01T05:04:53.212Z,974.04
2019-05-01T05:05:53.203Z,974.10
2019-05-01T05:06:53.191Z,974.10
2019-05-01T05:07:53.196Z,974.08
2019-05-01T05:08:53.176Z,974.17
2019-05-01T05:09:53.160Z,974.15
2019-05-01T05:10:53.151Z,974.15
2019-05-01T05:11:53.163Z,974.17
2019-05-01T05:12:53.219Z,974.11
2019-05-01T05:13:53.117Z,974.12
2019-05-01T05:14:53.116Z,974.13
2019-05-01T05:15:53.093Z,974.18
2019-05-01T05:16:53.082Z,974.21
2019-05-01T05:17:53.097Z,974.17
2019-05-01T05:18:53.072Z,974.19
2019-05-01T05:19:53.055Z,974.24
2019-05-01T05:20:53.055Z,974.22
2019-05-01T05:21:53.030Z,974.23
2019-05-01T05:22:53.024Z,974.24
2019-05-01T05:23:53.008Z,974.19
2019-05-01T05:24:53.007Z,974.25
2019-05-01T05:25:52.995Z,974.18
2019-05-01T05:26:53.049Z,974.21
2019-05-01T05:27:52.968Z,974.20
2019-05-01T05:28:52.954Z,974.11
2019-05-01T05:29:52.972Z,974.12
2019-05-01T05:30:52.934Z,974.16
2019-05-01T05:31:52.923Z,974.16
2019-05-01T05:32:52.914Z,974.17
2019-05-01T05:33:52.937Z,974.22
2019-05-01T05:34:52.889Z,974.18
2019-05-01T05:35:52.885Z,974.19
2019-05-01T05:36:52.868Z,974.17
2019-05-01T05:37:52.874Z,974.17
2019-05-01T05:38:52.903Z,974.21
2019-05-01T05:39:52.838Z,974.17
2019-05-01T05:40:52.829Z,974.20
2019-05-01T05:41:52.813Z,974.20
2019-05-01T05:42:52.818Z,974.20
2019-05-01T05:43:52.803Z,974.25
2019-05-01T05:44:52.781Z,974.28
2019-05-01T05:45:52.771Z,974.23
2019-05-01T05:46:52.760Z,974.21
2019-05-01T05:47:52.771Z,974.19
2019-05-01T05:48:52.755Z,974.17
2019-05-01T05:49:52.747Z,974.23
2019-05-01T05:50:52.718Z,974.25
2019-05-01T05:51:52.708Z,974.19
2019-05-01T05:52:52.725Z,974.23
2019-05-01T05:53:52.721Z,974.22
2019-05-01T05:54:52.791Z,974.19
2019-05-01T05:55:52.708Z,974.24
2019-05-01T05:56:52.922Z,974.27
2019-05-01T05:57:52.642Z,974.21
2019-05-01T05:58:52.633Z,974.23
2019-05-01T05:59:52.835Z,974.28
2019-05-01T06:00:52.699Z,974.21
2019-05-01T06:01:52.598Z,974.21
2019-05-01T06:02:52.652Z,974.23
2019-05-01T06:03:52.589Z,974.22
2019-05-01T06:04:52.567Z,974.23
2019-05-01T06:05:52.577Z,974.18
2019-05-01T06:06:52.557Z,974.27
2019-05-01T06:07:52.601Z,974.19
2019-05-01T06:08:52.535Z,974.14
2019-05-01T06:09:52.515Z,974.23
2019-05-01T06:10:57.977Z,974.19
2019-05-01T06:11:53.533Z,974.22
2019-05-01T06:12:52.512Z,974.22
2019-05-01T06:13:56.558Z,974.25
2019-05-01T06:14:52.473Z,974.19
2019-05-01T06:15:52.449Z,974.22
2019-05-01T06:16:54.070Z,974.12
2019-05-01T06:17:52.473Z,974.19
2019-05-01T06:18:52.432Z,974.13
2019-05-01T06:19:52.410Z,974.14
2019-05-01T06:20:52.394Z,974.16
2019-05-01T06:21:52.386Z,974.19
2019-05-01T06:22:52.390Z,974.13
2019-05-01T06:23:52.815Z,974.20
2019-05-01T06:24:52.386Z,974.19
2019-05-01T06:25:54.103Z,974.22
2019-05-01T06:26:53.355Z,974.18
2019-05-01T06:27:52.323Z,974.20
2019-05-01T06:28:55.938Z,974.17
2019-05-01T06:29:53.298Z,974.16
2019-05-01T06:30:52.286Z,974.18
2019-05-01T06:31:53.885Z,974.18
2019-05-01T06:32:53.350Z,974.17
2019-05-01T06:33:52.957Z,974.20
2019-05-01T06:34:52.251Z,974.18
2019-05-01T06:35:52.247Z,974.18
2019-05-01T06:36:52.223Z,974.22
2019-05-01T06:37:56.022Z,974.24
2019-05-01T06:38:53.218Z,974.15
2019-05-01T06:39:52.196Z,974.15
2019-05-01T06:40:53.204Z,974.17
2019-05-01T06:41:53.390Z,974.14
2019-05-01T06:42:52.610Z,974.11
2019-05-01T06:43:52.166Z,974.12
2019-05-01T06:44:52.139Z,974.11
2019-05-01T06:45:52.685Z,974.08
2019-05-01T06:46:52.217Z,974.13
2019-05-01T06:47:52.687Z,974.06
2019-05-01T06:48:53.498Z,974.11
2019-05-01T06:49:52.092Z,974.04
2019-05-01T06:50:52.073Z,974.05
2019-05-01T06:51:53.306Z,974.11
2019-05-01T06:52:52.060Z,974.04
2019-05-01T06:53:52.070Z,974.01
2019-05-01T06:54:52.236Z,974.03
2019-05-01T06:55:52.016Z,974.05
2019-05-01T06:56:52.006Z,973.97
2019-05-01T06:57:51.996Z,973.99
2019-05-01T06:58:55.334Z,973.94
2019-05-01T06:59:52.043Z,974.02
2019-05-01T07:00:52.050Z,974.01
2019-05-01T07:01:53.203Z,973.95
2019-05-01T07:02:52.947Z,973.92
2019-05-01T07:04:03.734Z,973.92
2019-05-01T07:04:52.936Z,973.90
2019-05-01T07:05:54.450Z,973.87
2019-05-01T07:06:51.900Z,973.86
2019-05-01T07:07:53.264Z,973.89
2019-05-01T07:08:51.883Z,973.94
2019-05-01T07:09:51.910Z,973.96
2019-05-01T07:10:51.882Z,973.96
2019-05-01T07:11:52.791Z,973.93
2019-05-01T07:12:51.835Z,973.93
2019-05-01T07:13:51.822Z,973.88
2019-05-01T07:14:52.207Z,973.81
2019-05-01T07:15:51.806Z,973.90
2019-05-01T07:16:51.806Z,973.89
2019-05-01T07:17:51.782Z,973.93
2019-05-01T07:18:51.772Z,973.90
2019-05-01T07:19:51.772Z,973.95
2019-05-01T07:20:53.259Z,973.92
2019-05-01T07:21:51.739Z,973.92
2019-05-01T07:22:51.750Z,973.97
2019-05-01T07:23:52.210Z,973.91
2019-05-01T07:24:51.709Z,973.95
2019-05-01T07:25:51.703Z,973.95
2019-05-01T07:26:51.685Z,973.90
2019-05-01T07:27:53.981Z,973.81
2019-05-01T07:28:52.664Z,973.84
2019-05-01T07:29:51.652Z,973.87
2019-05-01T07:30:54.946Z,973.82
2019-05-01T07:31:51.923Z,973.86
2019-05-01T07:32:51.634Z,973.89
2019-05-01T07:33:52.470Z,973.90
2019-05-01T07:34:51.601Z,973.88
2019-05-01T07:35:53.968Z,973.83
2019-05-01T07:36:51.764Z,973.86
2019-05-01T07:37:51.570Z,973.83
2019-05-01T07:38:51.578Z,973.88
2019-05-01T07:39:51.853Z,973.86
2019-05-01T07:40:51.539Z,973.84
2019-05-01T07:41:51.543Z,973.85
2019-05-01T07:42:51.518Z,973.82
2019-05-01T07:43:54.942Z,973.86
2019-05-01T07:44:52.496Z,973.83
2019-05-01T07:45:51.495Z,973.88
2019-05-01T07:46:54.334Z,973.86
2019-05-01T07:47:51.459Z,973.88
2019-05-01T07:48:51.447Z,973.89
2019-05-01T07:49:52.777Z,973.86
2019-05-01T07:50:51.435Z,973.92
2019-05-01T07:51:51.489Z,973.87
2019-05-01T07:52:52.333Z,973.86
2019-05-01T07:53:51.392Z,973.86
2019-05-01T07:54:51.389Z,973.90
2019-05-01T07:55:52.689Z,973.84
2019-05-01T07:56:51.619Z,973.88
2019-05-01T07:57:51.350Z,973.97
2019-05-01T07:58:51.974Z,973.91
2019-05-01T07:59:51.330Z,973.95
2019-05-01T08:00:51.341Z,973.86
2019-05-01T08:01:54.407Z,973.84
2019-05-01T08:02:51.308Z,973.94
2019-05-01T08:03:51.293Z,973.87
2019-05-01T08:04:51.279Z,973.89
2019-05-01T08:05:51.300Z,973.88
2019-05-01T08:06:52.073Z,973.79
2019-05-01T08:07:52.241Z,973.86
2019-05-01T08:08:51.241Z,973.77
2019-05-01T08:09:51.496Z,973.82
2019-05-01T08:10:51.210Z,973.83
2019-05-01T08:11:51.205Z,973.86
2019-05-01T08:12:55.398Z,973.89
2019-05-01T08:13:52.181Z,973.82
2019-05-01T08:14:53.741Z,973.85
2019-05-01T08:15:51.158Z,973.80
2019-05-01T08:16:51.152Z,973.81
2019-05-01T08:17:53.156Z,973.81
2019-05-01T08:18:51.123Z,973.81
2019-05-01T08:19:51.116Z,973.86
2019-05-01T08:20:51.573Z,973.69
2019-05-01T08:21:51.097Z,973.77
2019-05-01T08:22:51.136Z,973.78
2019-05-01T08:23:51.073Z,973.74
2019-05-01T08:24:53.812Z,973.73
2019-05-01T08:25:52.049Z,973.74
2019-05-01T08:26:51.045Z,973.76
2019-05-01T08:27:55.848Z,973.73
2019-05-01T08:28:52.058Z,973.72
2019-05-01T08:29:51.006Z,973.72
2019-05-01T08:30:52.699Z,973.72
2019-05-01T08:31:50.997Z,973.73
2019-05-01T08:32:51.004Z,973.75
2019-05-01T08:33:51.653Z,973.73
2019-05-01T08:34:50.981Z,973.73
2019-05-01T08:35:50.950Z,973.72
2019-05-01T08:36:51.212Z,973.74
2019-05-01T08:37:53.835Z,973.61
2019-05-01T08:38:51.909Z,973.69
2019-05-01T08:39:50.897Z,973.62
2019-05-01T08:40:55.615Z,973.67
2019-05-01T08:41:51.921Z,973.67
2019-05-01T08:42:50.881Z,973.57
2019-05-01T08:43:54.072Z,973.61
2019-05-01T08:44:50.844Z,973.54
2019-05-01T08:45:50.835Z,973.58
2019-05-01T08:46:51.121Z,973.51
2019-05-01T08:47:50.819Z,973.58
2019-05-01T08:48:50.807Z,973.51
2019-05-01T08:49:50.938Z,973.53
2019-05-01T08:50:54.574Z,973.53
2019-05-01T08:51:51.788Z,973.52
2019-05-01T08:52:50.759Z,973.55
2019-05-01T08:53:52.733Z,973.48
2019-05-01T08:54:54.606Z,973.46
2019-05-01T08:55:50.731Z,973.52
2019-05-01T08:56:52.942Z,973.44
2019-05-01T08:57:51.790Z,973.44
2019-05-01T08:58:50.725Z,973.42
2019-05-01T08:59:50.685Z,973.48
2019-05-01T09:00:50.914Z,973.39
2019-05-01T09:02:07.760Z,973.38
2019-05-01T09:02:51.650Z,973.38
2019-05-01T09:03:54.565Z,973.44
2019-05-01T09:05:01.697Z,973.41
2019-05-01T09:05:52.289Z,973.42
2019-05-01T09:06:51.651Z,973.43
2019-05-01T09:07:51.155Z,973.48
2019-05-01T09:08:50.587Z,973.48
2019-05-01T09:09:50.577Z,973.46
2019-05-01T09:10:54.834Z,973.49
2019-05-01T09:11:54.413Z,973.49
2019-05-01T09:12:52.053Z,973.46
2019-05-01T09:13:50.539Z,973.51
2019-05-01T09:14:51.254Z,973.51
2019-05-01T09:15:50.953Z,973.48
2019-05-01T09:16:52.456Z,973.53
2019-05-01T09:17:50.495Z,973.45
2019-05-01T09:18:50.482Z,973.45
2019-05-01T09:19:50.484Z,973.46
2019-05-01T09:20:50.459Z,973.40
2019-05-01T09:21:50.447Z,973.39
2019-05-01T09:22:50.478Z,973.40
2019-05-01T09:23:51.391Z,973.43
2019-05-01T09:24:50.414Z,973.40
2019-05-01T09:25:50.417Z,973.35
2019-05-01T09:26:51.521Z,973.34
2019-05-01T09:27:50.468Z,973.29
2019-05-01T09:28:50.375Z,973.35
2019-05-01T09:29:51.585Z,973.33
2019-05-01T09:30:50.351Z,973.38
2019-05-01T09:31:50.341Z,973.37
2019-05-01T09:32:54.242Z,973.31
2019-05-01T09:33:51.363Z,973.40
2019-05-01T09:34:50.318Z,973.42
2019-05-01T09:35:50.311Z,973.41
2019-05-01T09:36:50.287Z,973.36
2019-05-01T09:37:50.287Z,973.36
2019-05-01T09:38:50.266Z,973.31
2019-05-01T09:39:50.273Z,973.29
2019-05-01T09:40:50.252Z,973.37
2019-05-01T09:41:50.233Z,973.37
2019-05-01T09:42:50.230Z,973.32
2019-05-01T09:43:50.218Z,973.39
2019-05-01T09:44:50.217Z,973.28
2019-05-01T09:45:50.191Z,973.30
2019-05-01T09:46:50.195Z,973.32
2019-05-01T09:47:50.186Z,973.40
2019-05-01T09:48:50.157Z,973.35
2019-05-01T09:49:53.896Z,973.38
2019-05-01T09:50:51.141Z,973.36
2019-05-01T09:51:50.123Z,973.33
2019-05-01T09:52:50.133Z,973.40
2019-05-01T09:53:50.108Z,973.41
2019-05-01T09:54:50.095Z,973.41
2019-05-01T09:55:50.083Z,973.37
2019-05-01T09:56:50.071Z,973.37
2019-05-01T09:57:50.113Z,973.39
2019-05-01T09:58:50.062Z,973.35
2019-05-01T09:59:50.039Z,973.34
2019-05-01T10:00:52.652Z,973.29
2019-05-01T10:01:50.025Z,973.33
2019-05-01T10:02:50.026Z,973.38
2019-05-01T10:03:54.591Z,973.26
2019-05-01T10:04:50.004Z,973.28
2019-05-01T10:05:49.978Z,973.30
2019-05-01T10:06:52.349Z,973.30
2019-05-01T10:07:49.966Z,973.34
2019-05-01T10:08:49.956Z,973.34
2019-05-01T10:09:52.155Z,973.35
2019-05-01T10:10:49.922Z,973.34
2019-05-01T10:11:49.915Z,973.33
2019-05-01T10:12:49.934Z,973.35
2019-05-01T10:13:53.623Z,973.37
2019-05-01T10:14:50.883Z,973.29
2019-05-01T10:15:49.888Z,973.35
2019-05-01T10:16:49.856Z,973.33
2019-05-01T10:17:49.862Z,973.32
2019-05-01T10:18:49.869Z,973.35
2019-05-01T10:19:50.256Z,973.36
2019-05-01T10:20:49.825Z,973.39
2019-05-01T10:21:49.810Z,973.34
2019-05-01T10:22:49.819Z,973.39
2019-05-01T10:23:51.726Z,973.30
2019-05-01T10:24:49.807Z,973.35
2019-05-01T10:25:49.879Z,973.34
2019-05-01T10:26:49.751Z,973.36
2019-05-01T10:27:52.722Z,973.31
2019-05-01T10:28:50.290Z,973.35
2019-05-01T10:29:49.718Z,973.31
2019-05-01T10:30:49.709Z,973.30
2019-05-01T10:31:49.833Z,973.35
2019-05-01T10:32:52.859Z,973.40
2019-05-01T10:33:50.689Z,973.31
2019-05-01T10:34:49.671Z,973.34
2019-05-01T10:35:49.662Z,973.31
2019-05-01T10:36:54.047Z,973.37
2019-05-01T10:37:49.660Z,973.33
2019-05-01T10:38:49.623Z,973.35
2019-05-01T10:39:50.189Z,973.32
2019-05-01T10:40:49.599Z,973.32
2019-05-01T10:41:49.587Z,973.26
2019-05-01T10:42:49.578Z,973.27
2019-05-01T10:43:49.577Z,973.27
2019-05-01T10:44:49.561Z,973.31
2019-05-01T10:45:49.544Z,973.23
2019-05-01T10:46:49.545Z,973.25
2019-05-01T10:47:49.536Z,973.26
2019-05-01T10:48:49.534Z,973.24
2019-05-01T10:49:49.501Z,973.26
2019-05-01T10:50:49.502Z,973.23
2019-05-01T10:51:49.482Z,973.24
2019-05-01T10:52:49.467Z,973.24
2019-05-01T10:53:49.548Z,973.22
2019-05-01T10:54:49.453Z,973.18
2019-05-01T10:55:49.440Z,973.20
2019-05-01T10:56:49.434Z,973.21
2019-05-01T10:57:49.499Z,973.21
2019-05-01T10:58:49.422Z,973.18
2019-05-01T10:59:49.393Z,973.19
2019-05-01T11:00:49.393Z,973.18
2019-05-01T11:01:49.380Z,973.13
2019-05-01T11:02:49.359Z,973.18
2019-05-01T11:03:49.359Z,973.17
2019-05-01T11:04:49.344Z,973.14
2019-05-01T11:05:56.183Z,973.15
2019-05-01T11:06:50.332Z,973.11
2019-05-01T11:07:49.308Z,973.11
2019-05-01T11:08:49.349Z,973.12
2019-05-01T11:09:49.286Z,973.05
2019-05-01T11:10:49.274Z,973.08
2019-05-01T11:11:49.267Z,973.14
2019-05-01T11:12:49.252Z,973.09
2019-05-01T11:13:49.258Z,973.13
2019-05-01T11:14:49.234Z,973.06
2019-05-01T11:15:49.228Z,973.09
2019-05-01T11:16:49.209Z,973.15
2019-05-01T11:17:49.203Z,973.11
2019-05-01T11:18:49.212Z,973.09
2019-05-01T11:19:49.190Z,973.11
2019-05-01T11:20:49.166Z,973.06
2019-05-01T11:21:49.171Z,973.06
2019-05-01T11:22:49.148Z,973.09
2019-05-01T11:23:49.230Z,973.07
2019-05-01T11:24:49.185Z,973.10
2019-05-01T11:25:49.112Z,973.04
2019-05-01T11:26:49.101Z,973.07
2019-05-01T11:27:49.121Z,973.05
2019-05-01T11:28:49.122Z,973.09
2019-05-01T11:29:49.102Z,973.09
2019-05-01T11:30:49.083Z,973.04
2019-05-01T11:31:49.051Z,973.06
2019-05-01T11:32:49.038Z,973.07
2019-05-01T11:33:49.040Z,973.07
2019-05-01T11:34:49.022Z,973.03
2019-05-01T11:35:49.021Z,973.02
2019-05-01T11:36:48.996Z,973.09
2019-05-01T11:37:49.029Z,973.04
2019-05-01T11:38:49.013Z,973.02
2019-05-01T11:39:48.971Z,973.03
2019-05-01T11:40:48.957Z,973.02
2019-05-01T11:41:48.958Z,973.00
2019-05-01T11:42:48.941Z,973.00
2019-05-01T11:43:48.921Z,973.05
2019-05-01T11:44:48.916Z,973.03
2019-05-01T11:45:48.902Z,973.09
2019-05-01T11:46:48.898Z,973.12
2019-05-01T11:47:48.878Z,973.10
2019-05-01T11:48:48.876Z,973.07
2019-05-01T11:49:48.859Z,973.06
2019-05-01T11:50:48.845Z,973.09
2019-05-01T11:51:48.842Z,973.05
2019-05-01T11:52:48.850Z,973.11
2019-05-01T11:53:48.822Z,973.09
2019-05-01T11:54:48.825Z,973.14
2019-05-01T11:55:48.793Z,973.12
2019-05-01T11:56:48.786Z,973.11
2019-05-01T11:57:48.770Z,973.10
2019-05-01T11:58:48.772Z,973.08
2019-05-01T11:59:48.774Z,973.09
2019-05-01T12:00:48.741Z,973.04
2019-05-01T12:01:48.740Z,973.09
2019-05-01T12:02:48.717Z,973.07
2019-05-01T12:03:48.709Z,973.08
2019-05-01T12:04:48.705Z,973.10
2019-05-01T12:05:48.723Z,973.14
2019-05-01T12:06:48.673Z,973.13
2019-05-01T12:07:48.666Z,973.12
2019-05-01T12:08:48.656Z,973.15
2019-05-01T12:09:48.662Z,973.14
2019-05-01T12:10:48.630Z,973.17
2019-05-01T12:11:48.635Z,973.12
2019-05-01T12:12:48.611Z,973.13
2019-05-01T12:13:48.599Z,973.10
2019-05-01T12:14:49.267Z,973.10
2019-05-01T12:15:48.577Z,973.17
2019-05-01T12:16:48.568Z,973.17
2019-05-01T12:17:48.561Z,973.18
2019-05-01T12:18:48.545Z,973.13
2019-05-01T12:19:48.545Z,973.15
2019-05-01T12:20:48.527Z,973.11
2019-05-01T12:21:48.577Z,973.10
2019-05-01T12:22:51.273Z,973.06
2019-05-01T12:23:48.507Z,973.07
2019-05-01T12:24:48.559Z,973.02
2019-05-01T12:25:48.473Z,972.99
2019-05-01T12:26:48.466Z,973.02
2019-05-01T12:27:48.460Z,972.97
2019-05-01T12:28:48.447Z,972.99